sensor_id;sensor_type;location;lat;lon;timestamp;P1;durP1;ratioP1;P2;durP2;ratioP2
36691;SDS011;22678;52.052;4.242;2023-04-24T00:02:17;6.43;;;0.98;;
36691;SDS011;22678;52.052;4.242;2023-04-24T00:04:42;6.97;;;1.13;;
36691;SDS011;22678;52.052;4.242;2023-04-24T00:07:11;7.10;;;1.30;;
36691;SDS011;22678;52.052;4.242;2023-04-24T00:09:37;3.25;;;1.25;;
36691;SDS011;22678;52.052;4.242;2023-04-24T00:12:03;6.65;;;1.60;;
36691;SDS011;22678;52.052;4.242;2023-04-24T00:14:29;4.20;;;0.52;;
36691;SDS011;22678;52.052;4.242;2023-04-24T00:16:57;6.78;;;0.80;;
36691;SDS011;22678;52.052;4.242;2023-04-24T00:19:23;8.98;;;1.98;;
36691;SDS011;22678;52.052;4.242;2023-04-24T00:21:48;3.78;;;1.05;;
36691;SDS011;22678;52.052;4.242;2023-04-24T00:24:17;2.72;;;0.47;;
36691;SDS011;22678;52.052;4.242;2023-04-24T00:26:43;2.25;;;0.60;;
36691;SDS011;22678;52.052;4.242;2023-04-24T00:29:08;2.25;;;0.70;;
36691;SDS011;22678;52.052;4.242;2023-04-24T00:31:34;5.22;;;1.00;;
36691;SDS011;22678;52.052;4.242;2023-04-24T00:34:00;7.07;;;0.50;;
36691;SDS011;22678;52.052;4.242;2023-04-24T00:36:26;3.42;;;0.65;;
36691;SDS011;22678;52.052;4.242;2023-04-24T00:38:52;2.03;;;0.40;;
36691;SDS011;22678;52.052;4.242;2023-04-24T00:41:17;2.70;;;0.43;;
36691;SDS011;22678;52.052;4.242;2023-04-24T00:43:43;4.47;;;0.30;;
36691;SDS011;22678;52.052;4.242;2023-04-24T00:46:09;6.30;;;2.58;;
36691;SDS011;22678;52.052;4.242;2023-04-24T00:48:35;0.93;;;0.73;;
36691;SDS011;22678;52.052;4.242;2023-04-24T00:51:03;3.47;;;0.20;;
36691;SDS011;22678;52.052;4.242;2023-04-24T00:53:29;4.07;;;0.50;;
36691;SDS011;22678;52.052;4.242;2023-04-24T00:55:54;4.60;;;0.27;;
36691;SDS011;22678;52.052;4.242;2023-04-24T00:58:20;3.93;;;0.77;;
36691;SDS011;22678;52.052;4.242;2023-04-24T01:00:45;4.73;;;0.37;;
36691;SDS011;22678;52.052;4.242;2023-04-24T01:03:12;2.88;;;0.22;;
36691;SDS011;22678;52.052;4.242;2023-04-24T01:05:39;6.83;;;1.27;;
36691;SDS011;22678;52.052;4.242;2023-04-24T01:08:04;3.42;;;0.75;;
36691;SDS011;22678;52.052;4.242;2023-04-24T01:10:30;7.43;;;0.20;;
36691;SDS011;22678;52.052;4.242;2023-04-24T01:12:57;4.50;;;0.40;;
36691;SDS011;22678;52.052;4.242;2023-04-24T01:15:23;2.70;;;1.45;;
36691;SDS011;22678;52.052;4.242;2023-04-24T01:17:48;5.07;;;0.73;;
36691;SDS011;22678;52.052;4.242;2023-04-24T01:20:13;3.53;;;1.10;;
36691;SDS011;22678;52.052;4.242;2023-04-24T01:22:40;5.35;;;0.60;;
36691;SDS011;22678;52.052;4.242;2023-04-24T01:25:06;7.15;;;2.22;;
36691;SDS011;22678;52.052;4.242;2023-04-24T01:27:32;2.08;;;0.40;;
36691;SDS011;22678;52.052;4.242;2023-04-24T01:29:57;4.07;;;0.30;;
36691;SDS011;22678;52.052;4.242;2023-04-24T01:32:23;4.23;;;1.07;;
36691;SDS011;22678;52.052;4.242;2023-04-24T01:34:49;3.23;;;0.60;;
36691;SDS011;22678;52.052;4.242;2023-04-24T01:37:15;3.40;;;0.30;;
36691;SDS011;22678;52.052;4.242;2023-04-24T01:39:41;1.20;;;0.20;;
36691;SDS011;22678;52.052;4.242;2023-04-24T01:42:07;6.65;;;0.93;;
36691;SDS011;22678;52.052;4.242;2023-04-24T01:44:33;1.52;;;0.10;;
36691;SDS011;22678;52.052;4.242;2023-04-24T01:46:59;2.83;;;0.13;;
36691;SDS011;22678;52.052;4.242;2023-04-24T01:49:26;2.63;;;0.20;;
36691;SDS011;22678;52.052;4.242;2023-04-24T01:51:51;2.50;;;0.27;;
36691;SDS011;22678;52.052;4.242;2023-04-24T01:54:17;3.07;;;0.37;;
36691;SDS011;22678;52.052;4.242;2023-04-24T01:56:42;6.23;;;0.40;;
36691;SDS011;22678;52.052;4.242;2023-04-24T01:59:09;4.45;;;0.60;;
36691;SDS011;22678;52.052;4.242;2023-04-24T02:01:35;5.13;;;1.30;;
36691;SDS011;22678;52.052;4.242;2023-04-24T02:04:01;4.13;;;0.52;;
36691;SDS011;22678;52.052;4.242;2023-04-24T02:06:26;1.50;;;0.23;;
36691;SDS011;22678;52.052;4.242;2023-04-24T02:08:52;1.50;;;0.43;;
36691;SDS011;22678;52.052;4.242;2023-04-24T02:11:17;2.30;;;1.07;;
36691;SDS011;22678;52.052;4.242;2023-04-24T02:13:43;7.28;;;0.80;;
36691;SDS011;22678;52.052;4.242;2023-04-24T02:16:08;5.13;;;2.00;;
36691;SDS011;22678;52.052;4.242;2023-04-24T02:18:34;4.00;;;1.05;;
36691;SDS011;22678;52.052;4.242;2023-04-24T02:20:59;2.70;;;0.30;;
36691;SDS011;22678;52.052;4.242;2023-04-24T02:23:24;6.53;;;0.80;;
36691;SDS011;22678;52.052;4.242;2023-04-24T02:25:50;1.38;;;0.20;;
36691;SDS011;22678;52.052;4.242;2023-04-24T02:28:15;2.90;;;1.23;;
36691;SDS011;22678;52.052;4.242;2023-04-24T02:30:41;3.70;;;0.60;;
36691;SDS011;22678;52.052;4.242;2023-04-24T02:33:06;5.00;;;1.70;;
36691;SDS011;22678;52.052;4.242;2023-04-24T02:35:32;4.37;;;0.97;;
36691;SDS011;22678;52.052;4.242;2023-04-24T02:37:57;9.30;;;0.50;;
36691;SDS011;22678;52.052;4.242;2023-04-24T02:40:22;6.90;;;0.83;;
36691;SDS011;22678;52.052;4.242;2023-04-24T02:42:48;5.03;;;0.30;;
36691;SDS011;22678;52.052;4.242;2023-04-24T02:45:13;5.90;;;1.20;;
36691;SDS011;22678;52.052;4.242;2023-04-24T02:47:38;1.60;;;0.20;;
36691;SDS011;22678;52.052;4.242;2023-04-24T02:50:04;2.77;;;0.70;;
36691;SDS011;22678;52.052;4.242;2023-04-24T02:52:29;3.07;;;0.30;;
36691;SDS011;22678;52.052;4.242;2023-04-24T02:54:55;6.25;;;0.68;;
36691;SDS011;22678;52.052;4.242;2023-04-24T02:57:20;2.60;;;0.33;;
36691;SDS011;22678;52.052;4.242;2023-04-24T02:59:45;4.00;;;0.70;;
36691;SDS011;22678;52.052;4.242;2023-04-24T03:02:11;5.77;;;1.17;;
36691;SDS011;22678;52.052;4.242;2023-04-24T03:04:36;1.60;;;0.30;;
36691;SDS011;22678;52.052;4.242;2023-04-24T03:07:01;6.33;;;0.40;;
36691;SDS011;22678;52.052;4.242;2023-04-24T03:09:27;9.27;;;1.60;;
36691;SDS011;22678;52.052;4.242;2023-04-24T03:11:52;8.50;;;1.40;;
36691;SDS011;22678;52.052;4.242;2023-04-24T03:14:17;3.50;;;0.30;;
36691;SDS011;22678;52.052;4.242;2023-04-24T03:16:43;6.87;;;0.47;;
36691;SDS011;22678;52.052;4.242;2023-04-24T03:19:08;8.63;;;0.68;;
36691;SDS011;22678;52.052;4.242;2023-04-24T03:21:33;5.53;;;0.60;;
36691;SDS011;22678;52.052;4.242;2023-04-24T03:24:00;5.40;;;0.85;;
36691;SDS011;22678;52.052;4.242;2023-04-24T03:26:26;3.03;;;0.60;;
36691;SDS011;22678;52.052;4.242;2023-04-24T03:28:51;3.57;;;0.40;;
36691;SDS011;22678;52.052;4.242;2023-04-24T03:31:16;6.50;;;0.63;;
36691;SDS011;22678;52.052;4.242;2023-04-24T03:33:42;4.90;;;0.53;;
36691;SDS011;22678;52.052;4.242;2023-04-24T03:36:07;5.83;;;0.23;;
36691;SDS011;22678;52.052;4.242;2023-04-24T03:38:33;4.23;;;0.80;;
36691;SDS011;22678;52.052;4.242;2023-04-24T03:40:58;4.07;;;0.52;;
36691;SDS011;22678;52.052;4.242;2023-04-24T03:43:23;4.18;;;0.30;;
36691;SDS011;22678;52.052;4.242;2023-04-24T03:45:48;3.27;;;0.43;;
36691;SDS011;22678;52.052;4.242;2023-04-24T03:48:14;2.42;;;0.20;;
36691;SDS011;22678;52.052;4.242;2023-04-24T03:50:39;8.30;;;0.87;;
36691;SDS011;22678;52.052;4.242;2023-04-24T03:53:05;7.93;;;1.13;;
36691;SDS011;22678;52.052;4.242;2023-04-24T03:55:30;8.80;;;1.67;;
36691;SDS011;22678;52.052;4.242;2023-04-24T03:57:55;9.63;;;3.13;;
36691;SDS011;22678;52.052;4.242;2023-04-24T04:00:21;8.90;;;2.92;;
36691;SDS011;22678;52.052;4.242;2023-04-24T04:02:46;18.33;;;3.83;;
36691;SDS011;22678;52.052;4.242;2023-04-24T04:05:11;15.10;;;3.58;;
36691;SDS011;22678;52.052;4.242;2023-04-24T04:07:37;16.67;;;4.67;;
36691;SDS011;22678;52.052;4.242;2023-04-24T04:10:02;13.38;;;4.15;;
36691;SDS011;22678;52.052;4.242;2023-04-24T04:12:28;8.60;;;3.22;;
36691;SDS011;22678;52.052;4.242;2023-04-24T04:14:53;14.17;;;3.20;;
36691;SDS011;22678;52.052;4.242;2023-04-24T04:17:18;15.73;;;3.83;;
36691;SDS011;22678;52.052;4.242;2023-04-24T04:19:44;13.70;;;3.50;;
36691;SDS011;22678;52.052;4.242;2023-04-24T04:22:09;9.53;;;2.80;;
36691;SDS011;22678;52.052;4.242;2023-04-24T04:24:35;20.90;;;3.47;;
36691;SDS011;22678;52.052;4.242;2023-04-24T04:27:03;12.30;;;4.53;;
36691;SDS011;22678;52.052;4.242;2023-04-24T04:29:29;17.57;;;5.87;;
36691;SDS011;22678;52.052;4.242;2023-04-24T04:31:56;22.10;;;6.87;;
36691;SDS011;22678;52.052;4.242;2023-04-24T04:34:22;11.43;;;5.90;;
36691;SDS011;22678;52.052;4.242;2023-04-24T04:36:47;23.17;;;8.50;;
36691;SDS011;22678;52.052;4.242;2023-04-24T04:39:13;18.17;;;6.20;;
36691;SDS011;22678;52.052;4.242;2023-04-24T04:41:39;14.20;;;7.40;;
36691;SDS011;22678;52.052;4.242;2023-04-24T04:44:06;17.93;;;7.30;;
36691;SDS011;22678;52.052;4.242;2023-04-24T04:46:33;20.43;;;7.50;;
36691;SDS011;22678;52.052;4.242;2023-04-24T04:48:59;19.10;;;5.73;;
36691;SDS011;22678;52.052;4.242;2023-04-24T04:51:26;11.73;;;4.97;;
36691;SDS011;22678;52.052;4.242;2023-04-24T04:53:52;21.13;;;6.13;;
36691;SDS011;22678;52.052;4.242;2023-04-24T04:56:17;19.93;;;7.60;;
36691;SDS011;22678;52.052;4.242;2023-04-24T04:58:42;15.30;;;6.10;;
36691;SDS011;22678;52.052;4.242;2023-04-24T05:01:08;18.03;;;6.27;;
36691;SDS011;22678;52.052;4.242;2023-04-24T05:03:33;16.03;;;6.67;;
36691;SDS011;22678;52.052;4.242;2023-04-24T05:05:58;10.07;;;5.43;;
36691;SDS011;22678;52.052;4.242;2023-04-24T05:08:24;15.00;;;6.57;;
36691;SDS011;22678;52.052;4.242;2023-04-24T05:10:49;22.17;;;8.13;;
36691;SDS011;22678;52.052;4.242;2023-04-24T05:13:14;16.20;;;6.77;;
36691;SDS011;22678;52.052;4.242;2023-04-24T05:15:40;23.43;;;9.40;;
36691;SDS011;22678;52.052;4.242;2023-04-24T05:18:05;28.20;;;8.70;;
36691;SDS011;22678;52.052;4.242;2023-04-24T05:20:30;23.23;;;6.77;;
36691;SDS011;22678;52.052;4.242;2023-04-24T05:22:55;24.97;;;6.07;;
36691;SDS011;22678;52.052;4.242;2023-04-24T05:25:21;18.17;;;5.87;;
36691;SDS011;22678;52.052;4.242;2023-04-24T05:27:46;12.53;;;6.27;;
36691;SDS011;22678;52.052;4.242;2023-04-24T05:30:12;15.63;;;5.70;;
36691;SDS011;22678;52.052;4.242;2023-04-24T05:32:37;15.27;;;6.03;;
36691;SDS011;22678;52.052;4.242;2023-04-24T05:35:03;20.77;;;5.47;;
36691;SDS011;22678;52.052;4.242;2023-04-24T05:37:28;16.97;;;8.27;;
36691;SDS011;22678;52.052;4.242;2023-04-24T05:39:54;12.93;;;4.30;;
36691;SDS011;22678;52.052;4.242;2023-04-24T05:42:19;18.50;;;7.70;;
36691;SDS011;22678;52.052;4.242;2023-04-24T05:44:44;14.57;;;5.10;;
36691;SDS011;22678;52.052;4.242;2023-04-24T05:47:10;28.97;;;4.87;;
36691;SDS011;22678;52.052;4.242;2023-04-24T05:49:35;25.90;;;6.07;;
36691;SDS011;22678;52.052;4.242;2023-04-24T05:52:00;19.60;;;7.00;;
36691;SDS011;22678;52.052;4.242;2023-04-24T05:54:26;15.53;;;3.33;;
36691;SDS011;22678;52.052;4.242;2023-04-24T05:56:51;17.47;;;4.13;;
36691;SDS011;22678;52.052;4.242;2023-04-24T05:59:16;29.17;;;4.70;;
36691;SDS011;22678;52.052;4.242;2023-04-24T06:01:42;17.50;;;5.77;;
36691;SDS011;22678;52.052;4.242;2023-04-24T06:04:07;15.30;;;3.70;;
36691;SDS011;22678;52.052;4.242;2023-04-24T06:06:32;21.23;;;5.33;;
36691;SDS011;22678;52.052;4.242;2023-04-24T06:08:58;24.57;;;5.20;;
36691;SDS011;22678;52.052;4.242;2023-04-24T06:11:24;15.93;;;3.47;;
36691;SDS011;22678;52.052;4.242;2023-04-24T06:13:49;21.13;;;5.07;;
36691;SDS011;22678;52.052;4.242;2023-04-24T06:16:15;16.37;;;4.37;;
36691;SDS011;22678;52.052;4.242;2023-04-24T06:18:40;22.80;;;5.83;;
36691;SDS011;22678;52.052;4.242;2023-04-24T06:21:06;20.23;;;3.93;;
36691;SDS011;22678;52.052;4.242;2023-04-24T06:23:31;14.57;;;4.17;;
36691;SDS011;22678;52.052;4.242;2023-04-24T06:25:58;16.00;;;4.00;;
36691;SDS011;22678;52.052;4.242;2023-04-24T06:28:24;24.77;;;5.17;;
36691;SDS011;22678;52.052;4.242;2023-04-24T06:30:49;13.43;;;4.33;;
36691;SDS011;22678;52.052;4.242;2023-04-24T06:33:15;16.80;;;2.67;;
36691;SDS011;22678;52.052;4.242;2023-04-24T06:35:41;21.40;;;5.07;;
36691;SDS011;22678;52.052;4.242;2023-04-24T06:38:06;22.17;;;4.77;;
36691;SDS011;22678;52.052;4.242;2023-04-24T06:40:31;10.77;;;2.57;;
36691;SDS011;22678;52.052;4.242;2023-04-24T06:42:57;22.20;;;4.87;;
36691;SDS011;22678;52.052;4.242;2023-04-24T06:45:24;11.43;;;3.90;;
36691;SDS011;22678;52.052;4.242;2023-04-24T06:47:50;16.00;;;3.53;;
36691;SDS011;22678;52.052;4.242;2023-04-24T06:50:16;16.90;;;2.77;;
36691;SDS011;22678;52.052;4.242;2023-04-24T06:52:41;20.63;;;2.70;;
36691;SDS011;22678;52.052;4.242;2023-04-24T06:55:07;12.30;;;1.90;;
36691;SDS011;22678;52.052;4.242;2023-04-24T06:57:32;12.60;;;1.53;;
36691;SDS011;22678;52.052;4.242;2023-04-24T06:59:58;24.83;;;2.53;;
36691;SDS011;22678;52.052;4.242;2023-04-24T07:02:24;16.90;;;3.53;;
36691;SDS011;22678;52.052;4.242;2023-04-24T07:04:49;11.83;;;1.73;;
36691;SDS011;22678;52.052;4.242;2023-04-24T07:07:15;12.90;;;1.27;;
36691;SDS011;22678;52.052;4.242;2023-04-24T07:09:41;10.73;;;2.00;;
36691;SDS011;22678;52.052;4.242;2023-04-24T07:12:07;29.93;;;2.47;;
36691;SDS011;22678;52.052;4.242;2023-04-24T07:14:33;24.30;;;2.53;;
36691;SDS011;22678;52.052;4.242;2023-04-24T07:16:58;15.37;;;2.10;;
36691;SDS011;22678;52.052;4.242;2023-04-24T07:19:24;14.63;;;2.60;;
36691;SDS011;22678;52.052;4.242;2023-04-24T07:21:49;27.57;;;4.17;;
36691;SDS011;22678;52.052;4.242;2023-04-24T07:24:15;14.90;;;4.07;;
36691;SDS011;22678;52.052;4.242;2023-04-24T07:26:40;12.47;;;2.37;;
36691;SDS011;22678;52.052;4.242;2023-04-24T07:29:06;13.40;;;2.77;;
36691;SDS011;22678;52.052;4.242;2023-04-24T07:31:32;9.33;;;3.03;;
36691;SDS011;22678;52.052;4.242;2023-04-24T07:33:57;11.33;;;2.30;;
36691;SDS011;22678;52.052;4.242;2023-04-24T07:36:23;13.37;;;1.97;;
36691;SDS011;22678;52.052;4.242;2023-04-24T07:38:49;10.37;;;1.53;;
36691;SDS011;22678;52.052;4.242;2023-04-24T07:41:14;12.10;;;2.00;;
36691;SDS011;22678;52.052;4.242;2023-04-24T07:43:40;9.57;;;1.83;;
36691;SDS011;22678;52.052;4.242;2023-04-24T07:46:06;13.90;;;3.27;;
36691;SDS011;22678;52.052;4.242;2023-04-24T07:48:32;11.60;;;2.10;;
36691;SDS011;22678;52.052;4.242;2023-04-24T07:50:57;14.00;;;1.60;;
36691;SDS011;22678;52.052;4.242;2023-04-24T07:53:23;10.73;;;1.70;;
36691;SDS011;22678;52.052;4.242;2023-04-24T07:55:48;9.13;;;1.40;;
36691;SDS011;22678;52.052;4.242;2023-04-24T07:58:13;11.33;;;2.60;;
36691;SDS011;22678;52.052;4.242;2023-04-24T08:00:39;7.87;;;0.67;;
36691;SDS011;22678;52.052;4.242;2023-04-24T08:03:04;13.53;;;2.87;;
36691;SDS011;22678;52.052;4.242;2023-04-24T08:05:29;10.10;;;0.93;;
36691;SDS011;22678;52.052;4.242;2023-04-24T08:07:55;11.17;;;1.87;;
36691;SDS011;22678;52.052;4.242;2023-04-24T08:10:23;11.57;;;1.30;;
36691;SDS011;22678;52.052;4.242;2023-04-24T08:12:48;9.47;;;1.83;;
36691;SDS011;22678;52.052;4.242;2023-04-24T08:15:14;3.87;;;0.83;;
36691;SDS011;22678;52.052;4.242;2023-04-24T08:17:39;10.10;;;0.73;;
36691;SDS011;22678;52.052;4.242;2023-04-24T08:20:05;10.23;;;1.23;;
36691;SDS011;22678;52.052;4.242;2023-04-24T08:22:35;7.03;;;2.10;;
36691;SDS011;22678;52.052;4.242;2023-04-24T08:25:00;7.63;;;0.67;;
36691;SDS011;22678;52.052;4.242;2023-04-24T08:27:26;4.87;;;0.73;;
36691;SDS011;22678;52.052;4.242;2023-04-24T08:29:53;4.60;;;1.00;;
36691;SDS011;22678;52.052;4.242;2023-04-24T08:32:19;7.33;;;0.83;;
36691;SDS011;22678;52.052;4.242;2023-04-24T08:34:44;6.03;;;1.23;;
36691;SDS011;22678;52.052;4.242;2023-04-24T08:37:10;9.70;;;0.60;;
36691;SDS011;22678;52.052;4.242;2023-04-24T08:39:36;8.77;;;1.00;;
36691;SDS011;22678;52.052;4.242;2023-04-24T08:42:01;6.70;;;0.50;;
36691;SDS011;22678;52.052;4.242;2023-04-24T08:44:33;5.57;;;0.70;;
36691;SDS011;22678;52.052;4.242;2023-04-24T08:47:01;5.07;;;1.83;;
36691;SDS011;22678;52.052;4.242;2023-04-24T08:49:28;5.87;;;1.17;;
36691;SDS011;22678;52.052;4.242;2023-04-24T08:51:53;2.67;;;0.50;;
36691;SDS011;22678;52.052;4.242;2023-04-24T08:54:19;7.83;;;1.00;;
36691;SDS011;22678;52.052;4.242;2023-04-24T08:56:45;3.43;;;0.70;;
36691;SDS011;22678;52.052;4.242;2023-04-24T08:59:14;7.87;;;1.00;;
36691;SDS011;22678;52.052;4.242;2023-04-24T09:01:40;8.43;;;2.27;;
36691;SDS011;22678;52.052;4.242;2023-04-24T09:04:07;7.50;;;0.63;;
36691;SDS011;22678;52.052;4.242;2023-04-24T09:06:38;3.97;;;0.33;;
36691;SDS011;22678;52.052;4.242;2023-04-24T09:09:03;5.37;;;0.83;;
36691;SDS011;22678;52.052;4.242;2023-04-24T09:11:32;9.40;;;1.70;;
36691;SDS011;22678;52.052;4.242;2023-04-24T09:13:58;9.17;;;2.43;;
36691;SDS011;22678;52.052;4.242;2023-04-24T09:16:25;8.10;;;0.93;;
36691;SDS011;22678;52.052;4.242;2023-04-24T09:18:51;10.40;;;0.60;;
36691;SDS011;22678;52.052;4.242;2023-04-24T09:21:16;10.17;;;0.80;;
36691;SDS011;22678;52.052;4.242;2023-04-24T09:23:42;7.00;;;1.70;;
36691;SDS011;22678;52.052;4.242;2023-04-24T09:26:08;5.53;;;1.10;;
36691;SDS011;22678;52.052;4.242;2023-04-24T09:28:35;3.13;;;0.30;;
36691;SDS011;22678;52.052;4.242;2023-04-24T09:31:15;7.20;;;1.40;;
36691;SDS011;22678;52.052;4.242;2023-04-24T09:36:39;1.40;;;1.17;;
36691;SDS011;22678;52.052;4.242;2023-04-24T09:41:54;7.80;;;0.82;;
36691;SDS011;22678;52.052;4.242;2023-04-24T09:44:23;6.53;;;1.02;;
36691;SDS011;22678;52.052;4.242;2023-04-24T09:46:50;6.38;;;1.00;;
36691;SDS011;22678;52.052;4.242;2023-04-24T09:49:23;8.43;;;0.70;;
36691;SDS011;22678;52.052;4.242;2023-04-24T09:52:06;6.13;;;0.70;;
36691;SDS011;22678;52.052;4.242;2023-04-24T09:54:33;3.28;;;0.20;;
36691;SDS011;22678;52.052;4.242;2023-04-24T09:56:58;6.28;;;0.55;;
36691;SDS011;22678;52.052;4.242;2023-04-24T09:59:25;7.93;;;0.28;;
36691;SDS011;22678;52.052;4.242;2023-04-24T10:01:50;6.18;;;1.45;;
36691;SDS011;22678;52.052;4.242;2023-04-24T10:06:50;4.95;;;0.77;;
36691;SDS011;22678;52.052;4.242;2023-04-24T10:09:17;8.00;;;0.50;;
36691;SDS011;22678;52.052;4.242;2023-04-24T10:11:44;4.55;;;0.63;;
36691;SDS011;22678;52.052;4.242;2023-04-24T10:14:15;8.27;;;1.70;;
36691;SDS011;22678;52.052;4.242;2023-04-24T10:16:42;9.63;;;0.70;;
36691;SDS011;22678;52.052;4.242;2023-04-24T10:19:09;9.45;;;2.40;;
36691;SDS011;22678;52.052;4.242;2023-04-24T10:21:34;10.98;;;2.17;;
36691;SDS011;22678;52.052;4.242;2023-04-24T10:24:00;11.57;;;1.23;;
36691;SDS011;22678;52.052;4.242;2023-04-24T10:26:28;8.48;;;1.63;;
36691;SDS011;22678;52.052;4.242;2023-04-24T10:28:54;5.80;;;1.58;;
36691;SDS011;22678;52.052;4.242;2023-04-24T10:31:22;7.63;;;0.45;;
36691;SDS011;22678;52.052;4.242;2023-04-24T10:33:47;4.78;;;0.43;;
36691;SDS011;22678;52.052;4.242;2023-04-24T10:36:16;4.32;;;0.63;;
36691;SDS011;22678;52.052;4.242;2023-04-24T10:38:43;8.50;;;1.02;;
36691;SDS011;22678;52.052;4.242;2023-04-24T10:41:11;4.68;;;0.40;;
36691;SDS011;22678;52.052;4.242;2023-04-24T10:43:44;16.92;;;1.50;;
36691;SDS011;22678;52.052;4.242;2023-04-24T10:46:10;3.22;;;0.17;;
36691;SDS011;22678;52.052;4.242;2023-04-24T10:48:36;4.18;;;0.82;;
36691;SDS011;22678;52.052;4.242;2023-04-24T10:51:10;16.23;;;5.90;;
36691;SDS011;22678;52.052;4.242;2023-04-24T10:53:37;10.65;;;1.80;;
36691;SDS011;22678;52.052;4.242;2023-04-24T10:56:03;1.38;;;0.50;;
36691;SDS011;22678;52.052;4.242;2023-04-24T10:58:38;3.67;;;0.40;;
36691;SDS011;22678;52.052;4.242;2023-04-24T11:01:06;0.75;;;0.10;;
36691;SDS011;22678;52.052;4.242;2023-04-24T11:03:34;5.63;;;0.77;;
36691;SDS011;22678;52.052;4.242;2023-04-24T11:06:02;11.82;;;3.55;;
36691;SDS011;22678;52.052;4.242;2023-04-24T11:08:30;6.45;;;0.30;;
36691;SDS011;22678;52.052;4.242;2023-04-24T11:13:24;4.35;;;0.60;;
36691;SDS011;22678;52.052;4.242;2023-04-24T11:18:39;5.68;;;0.90;;
36691;SDS011;22678;52.052;4.242;2023-04-24T11:21:13;4.05;;;0.52;;
36691;SDS011;22678;52.052;4.242;2023-04-24T11:23:41;6.18;;;1.30;;
36691;SDS011;22678;52.052;4.242;2023-04-24T11:26:16;6.13;;;1.05;;
36691;SDS011;22678;52.052;4.242;2023-04-24T11:28:47;7.90;;;2.55;;
36691;SDS011;22678;52.052;4.242;2023-04-24T11:34:11;5.35;;;0.88;;
36691;SDS011;22678;52.052;4.242;2023-04-24T11:36:38;5.38;;;0.40;;
36691;SDS011;22678;52.052;4.242;2023-04-24T11:39:05;7.57;;;0.98;;
36691;SDS011;22678;52.052;4.242;2023-04-24T11:41:31;5.72;;;1.85;;
36691;SDS011;22678;52.052;4.242;2023-04-24T11:43:57;10.50;;;1.00;;
36691;SDS011;22678;52.052;4.242;2023-04-24T11:46:23;18.77;;;0.80;;
36691;SDS011;22678;52.052;4.242;2023-04-24T11:48:52;5.07;;;1.25;;
36691;SDS011;22678;52.052;4.242;2023-04-24T11:51:18;7.55;;;2.25;;
36691;SDS011;22678;52.052;4.242;2023-04-24T11:53:43;7.93;;;1.38;;
36691;SDS011;22678;52.052;4.242;2023-04-24T11:56:09;9.07;;;2.47;;
36691;SDS011;22678;52.052;4.242;2023-04-24T11:58:34;4.43;;;0.75;;
36691;SDS011;22678;52.052;4.242;2023-04-24T12:01:01;11.50;;;1.83;;
36691;SDS011;22678;52.052;4.242;2023-04-24T12:03:26;7.30;;;2.35;;
36691;SDS011;22678;52.052;4.242;2023-04-24T12:05:52;10.70;;;1.42;;
36691;SDS011;22678;52.052;4.242;2023-04-24T12:08:27;11.02;;;2.10;;
36691;SDS011;22678;52.052;4.242;2023-04-24T12:10:56;11.32;;;3.03;;
36691;SDS011;22678;52.052;4.242;2023-04-24T12:13:21;11.15;;;2.33;;
36691;SDS011;22678;52.052;4.242;2023-04-24T12:15:46;12.82;;;1.73;;
36691;SDS011;22678;52.052;4.242;2023-04-24T12:18:12;10.18;;;2.35;;
36691;SDS011;22678;52.052;4.242;2023-04-24T12:20:38;13.25;;;2.33;;
36691;SDS011;22678;52.052;4.242;2023-04-24T12:23:03;12.68;;;3.95;;
36691;SDS011;22678;52.052;4.242;2023-04-24T12:25:29;11.93;;;1.40;;
36691;SDS011;22678;52.052;4.242;2023-04-24T12:30:29;16.08;;;2.95;;
36691;SDS011;22678;52.052;4.242;2023-04-24T12:32:57;14.02;;;2.33;;
36691;SDS011;22678;52.052;4.242;2023-04-24T12:35:25;20.80;;;3.17;;
36691;SDS011;22678;52.052;4.242;2023-04-24T12:37:52;14.98;;;2.72;;
36691;SDS011;22678;52.052;4.242;2023-04-24T12:40:18;15.27;;;2.08;;
36691;SDS011;22678;52.052;4.242;2023-04-24T12:42:48;17.15;;;3.78;;
36691;SDS011;22678;52.052;4.242;2023-04-24T12:45:16;7.90;;;1.35;;
36691;SDS011;22678;52.052;4.242;2023-04-24T12:47:42;10.02;;;2.28;;
36691;SDS011;22678;52.052;4.242;2023-04-24T12:50:09;6.88;;;1.70;;
36691;SDS011;22678;52.052;4.242;2023-04-24T12:52:36;8.18;;;1.15;;
36691;SDS011;22678;52.052;4.242;2023-04-24T12:55:02;7.43;;;1.52;;
36691;SDS011;22678;52.052;4.242;2023-04-24T12:57:29;11.13;;;2.25;;
36691;SDS011;22678;52.052;4.242;2023-04-24T12:59:56;8.32;;;1.40;;
36691;SDS011;22678;52.052;4.242;2023-04-24T13:02:22;14.48;;;1.85;;
36691;SDS011;22678;52.052;4.242;2023-04-24T13:04:49;14.93;;;1.67;;
36691;SDS011;22678;52.052;4.242;2023-04-24T13:07:15;12.50;;;1.65;;
36691;SDS011;22678;52.052;4.242;2023-04-24T13:09:41;14.05;;;3.63;;
36691;SDS011;22678;52.052;4.242;2023-04-24T13:12:08;10.70;;;2.47;;
36691;SDS011;22678;52.052;4.242;2023-04-24T13:14:33;6.97;;;2.47;;
36691;SDS011;22678;52.052;4.242;2023-04-24T13:16:59;6.15;;;1.48;;
36691;SDS011;22678;52.052;4.242;2023-04-24T13:19:25;9.63;;;1.67;;
36691;SDS011;22678;52.052;4.242;2023-04-24T13:21:51;13.52;;;2.13;;
36691;SDS011;22678;52.052;4.242;2023-04-24T13:24:17;8.23;;;1.27;;
36691;SDS011;22678;52.052;4.242;2023-04-24T13:26:43;11.05;;;1.58;;
36691;SDS011;22678;52.052;4.242;2023-04-24T13:29:08;9.05;;;1.65;;
36691;SDS011;22678;52.052;4.242;2023-04-24T13:31:34;5.80;;;1.65;;
36691;SDS011;22678;52.052;4.242;2023-04-24T13:34:00;6.18;;;1.05;;
36691;SDS011;22678;52.052;4.242;2023-04-24T13:36:25;8.23;;;1.92;;
36691;SDS011;22678;52.052;4.242;2023-04-24T13:38:51;5.57;;;1.77;;
36691;SDS011;22678;52.052;4.242;2023-04-24T13:41:16;9.48;;;1.70;;
36691;SDS011;22678;52.052;4.242;2023-04-24T13:43:41;9.63;;;1.23;;
36691;SDS011;22678;52.052;4.242;2023-04-24T13:46:07;11.73;;;2.22;;
36691;SDS011;22678;52.052;4.242;2023-04-24T13:48:33;6.55;;;1.83;;
36691;SDS011;22678;52.052;4.242;2023-04-24T13:50:58;8.48;;;1.40;;
36691;SDS011;22678;52.052;4.242;2023-04-24T13:53:23;12.40;;;2.40;;
36691;SDS011;22678;52.052;4.242;2023-04-24T13:55:49;12.80;;;2.40;;
36691;SDS011;22678;52.052;4.242;2023-04-24T13:58:14;11.38;;;1.35;;
36691;SDS011;22678;52.052;4.242;2023-04-24T14:00:40;8.85;;;1.98;;
36691;SDS011;22678;52.052;4.242;2023-04-24T14:03:05;7.63;;;2.30;;
36691;SDS011;22678;52.052;4.242;2023-04-24T14:05:31;13.18;;;2.75;;
36691;SDS011;22678;52.052;4.242;2023-04-24T14:07:56;20.23;;;1.98;;
36691;SDS011;22678;52.052;4.242;2023-04-24T14:10:21;10.13;;;2.05;;
36691;SDS011;22678;52.052;4.242;2023-04-24T14:12:47;8.82;;;2.95;;
36691;SDS011;22678;52.052;4.242;2023-04-24T14:15:13;6.25;;;1.77;;
36691;SDS011;22678;52.052;4.242;2023-04-24T14:17:38;15.13;;;3.28;;
36691;SDS011;22678;52.052;4.242;2023-04-24T14:20:04;15.23;;;2.72;;
36691;SDS011;22678;52.052;4.242;2023-04-24T14:22:30;8.75;;;1.38;;
36691;SDS011;22678;52.052;4.242;2023-04-24T14:24:55;9.20;;;2.22;;
36691;SDS011;22678;52.052;4.242;2023-04-24T14:27:21;19.00;;;3.78;;
36691;SDS011;22678;52.052;4.242;2023-04-24T14:29:46;9.32;;;2.40;;
36691;SDS011;22678;52.052;4.242;2023-04-24T14:32:11;14.65;;;3.13;;
36691;SDS011;22678;52.052;4.242;2023-04-24T14:34:39;12.00;;;3.38;;
36691;SDS011;22678;52.052;4.242;2023-04-24T14:37:05;12.90;;;2.22;;
36691;SDS011;22678;52.052;4.242;2023-04-24T14:39:30;12.18;;;2.65;;
36691;SDS011;22678;52.052;4.242;2023-04-24T14:41:55;13.52;;;2.47;;
36691;SDS011;22678;52.052;4.242;2023-04-24T14:44:21;6.28;;;1.95;;
36691;SDS011;22678;52.052;4.242;2023-04-24T14:46:47;14.57;;;2.17;;
36691;SDS011;22678;52.052;4.242;2023-04-24T14:49:14;10.20;;;1.90;;
36691;SDS011;22678;52.052;4.242;2023-04-24T14:51:39;12.15;;;4.28;;
36691;SDS011;22678;52.052;4.242;2023-04-24T14:54:05;19.55;;;2.65;;
36691;SDS011;22678;52.052;4.242;2023-04-24T14:56:31;9.98;;;2.70;;